Stolt Dipper — ZCMY3 — position and weather

sailwx.info

Track history (hours):
 
Tides and Currents Weather Stations Pressure Air Temp Water Temp Dewpoint Dewpoint Depression Visibility Wind Speed Wind Dir Waves Ship Positions

Stolt Dipper

Last reported at 2015-Aug-28 03:12 UTC. Time now 2015-Aug-28 09:31 UTC.
Position N 51°44' E 002°36'.

Length 96 m; draft 5 m.

Type: Ship. MMSI: 319036000.

Date/timePositionNaut miles runAvg speedWind from/ knotsBaromVisibWave heightAir tempDewpointWater temp
2015-Aug-28 03:12N 51°44' E 002°36'2612.2
2015-Aug-28 01:05N 51°42' E 003°18'714.2
2015-Aug-28 00:33N 51°35' E 003°24'1212.2
2015-Aug-27 23:33N 51°26' E 003°37'1010.2
2015-Aug-27 22:33N 51°21' E 003°51'8 7.8
2015-Aug-27 21:34N 51°24' E 004°02'9 9.4
2015-Aug-27 20:33N 51°21' E 004°16'0 0.5
2015-Aug-27 19:33N 51°21' E 004°17'2 2.4
2015-Aug-27 18:33N 51°19' E 004°19'4 3.5
2015-Aug-27 17:32N 51°16' E 004°22'0 0.0
2015-Aug-27 16:29N 51°16' E 004°22'0 0.0
2015-Aug-27 15:32N 51°16' E 004°22'0 0.0
2015-Aug-27 14:23N 51°16' E 004°22'0 0.0
2015-Aug-27 13:32N 51°16' E 004°22'0 0.0
2015-Aug-27 12:32N 51°16' E 004°22'0 0.0
2015-Aug-27 11:32N 51°16' E 004°22'1 1.4
2015-Aug-27 10:33N 51°17' E 004°20'0 0.0
2015-Aug-27 09:27N 51°17' E 004°20'0 0.0
2015-Aug-27 08:30N 51°17' E 004°20'0 0.0
2015-Aug-27 07:33N 51°17' E 004°20'0 0.0
2015-Aug-27 06:33N 51°17' E 004°20'0 0.0
2015-Aug-27 05:30N 51°17' E 004°20'0 0.0
2015-Aug-27 04:33N 51°17' E 004°20'0 0.0
2015-Aug-27 03:33N 51°17' E 004°20'0 0.0
2015-Aug-27 02:33N 51°17' E 004°20'0 0.0
2015-Aug-27 01:30N 51°17' E 004°20'0 0.0
2015-Aug-27 00:24N 51°17' E 004°20'0 0.0
2015-Aug-26 23:30N 51°17' E 004°20'0 0.0
2015-Aug-26 22:30N 51°17' E 004°20'0 0.0
2015-Aug-26 21:30N 51°17' E 004°20'0 0.1
2015-Aug-26 20:33N 51°17' E 004°20'4 4.5
2015-Aug-26 19:33N 51°21' E 004°17'0 0.0
2015-Aug-26 18:34N 51°21' E 004°17'2 2.1
2015-Aug-26 17:33N 51°21' E 004°14'6 6.4
2015-Aug-26 16:34N 51°22' E 004°04'5 5.0
2015-Aug-26 15:33N 51°22' E 003°56'9 8.6
2015-Aug-26 14:33N 51°24' E 003°42'8 8.0
2015-Aug-26 13:33N 51°25' E 003°30'10 9.6
2015-Aug-26 12:33N 51°24' E 003°14'1312.9
2015-Aug-26 11:33N 51°22' E 002°54'1110.5
2015-Aug-26 10:32N 51°22' E 002°37'3 2.7
2015-Aug-26 09:31N 51°20' E 002°34'0 0.0
2015-Aug-26 08:19N 51°20' E 002°34'0 0.0
2015-Aug-26 07:31N 51°20' E 002°34'1 1.1
2015-Aug-26 06:33N 51°21' E 002°33'9 9.4
2015-Aug-26 05:33N 51°18' E 002°19'1212.1
2015-Aug-26 04:33N 51°12' E 002°02'1211.9
2015-Aug-26 03:33N 51°06' E 001°46'1212.1
2015-Aug-26 02:34N 50°57' E 001°33'32612.1
2015-Aug-24 23:33N 48°08' W 005°37'  
2015-Aug-22 18:04N 46°21' W 002°45'1212.7
2015-Aug-22 17:06N 46°33' W 002°44'712.3
2015-Aug-22 16:29N 46°40' W 002°43'1312.5
2015-Aug-22 15:29N 46°53' W 002°42'1010.8
2015-Aug-22 14:33N 47°02' W 002°35'1212.3
2015-Aug-22 13:33N 47°09' W 002°20'1313.4
2015-Aug-22 12:33N 47°18' W 002°06'2010.0
2015-Aug-22 10:31N 47°12' W 001°38'0 0.0
2015-Aug-22 09:26N 47°12' W 001°38'0 0.0
2015-Aug-22 08:32N 47°12' W 001°38'0 0.0
2015-Aug-22 07:26N 47°12' W 001°38'0 0.0
2015-Aug-22 06:32N 47°12' W 001°38'0 0.0
2015-Aug-22 05:32N 47°12' W 001°38'0 0.0
2015-Aug-22 04:32N 47°12' W 001°38'0 0.0
2015-Aug-22 03:32N 47°12' W 001°38'0 0.0
2015-Aug-22 02:32N 47°12' W 001°38'0 0.0
2015-Aug-22 01:26N 47°12' W 001°38'0 0.0
2015-Aug-22 00:32N 47°12' W 001°38'0 0.0
2015-Aug-21 23:32N 47°12' W 001°38'0 0.0
2015-Aug-21 22:32N 47°12' W 001°38'0 0.0
2015-Aug-21 21:32N 47°12' W 001°38'0 0.0
2015-Aug-21 20:32N 47°12' W 001°38'0 0.0
2015-Aug-21 19:32N 47°12' W 001°38'4 3.8
2015-Aug-21 18:33N 47°12' W 001°43'7 7.4
2015-Aug-21 17:33N 47°16' W 001°53'9 9.4
2015-Aug-21 16:33N 47°18' W 002°06'10 9.7
2015-Aug-21 15:33N 47°12' W 002°17'7 7.1
2015-Aug-21 14:33N 47°07' W 002°25'0 0.2
2015-Aug-21 13:33N 47°07' W 002°25'0 0.0
2015-Aug-21 12:30N 47°07' W 002°25'0 0.0
2015-Aug-21 11:33N 47°07' W 002°25'0 0.0
2015-Aug-21 10:33N 47°07' W 002°25'0 0.0
2015-Aug-21 09:33N 47°07' W 002°25'0 0.0
2015-Aug-21 08:33N 47°07' W 002°25'0 0.1
2015-Aug-21 07:33N 47°07' W 002°25'0 0.0
2015-Aug-21 06:33N 47°07' W 002°25'0 0.0
2015-Aug-21 05:33N 47°07' W 002°25'0 0.0
2015-Aug-21 04:33N 47°07' W 002°25'0 0.0
2015-Aug-21 03:30N 47°07' W 002°25'0 0.0
2015-Aug-21 02:33N 47°07' W 002°25'0 0.1
2015-Aug-21 01:30N 47°07' W 002°25'0 0.0
2015-Aug-21 00:30N 47°07' W 002°25'0 0.0
2015-Aug-20 23:33N 47°07' W 002°25'0 0.0
2015-Aug-20 22:33N 47°07' W 002°25'0 0.0
2015-Aug-20 21:33N 47°07' W 002°25'0 0.0
2015-Aug-20 20:33N 47°07' W 002°25'0 0.0
2015-Aug-20 19:33N 47°07' W 002°25'0 0.0
2015-Aug-20 18:33N 47°07' W 002°25'0 0.0
2015-Aug-20 17:30N 47°07' W 002°25'0 0.0
2015-Aug-20 16:33N 47°07' W 002°25'0 0.0
2015-Aug-20 15:30N 47°07' W 002°25'0 0.0
2015-Aug-20 13:24N 47°07' W 002°25'0 0.1
2015-Aug-20 12:24N 47°07' W 002°25'5 5.9
2015-Aug-20 11:31N 47°03' W 002°30'11 9.8
2015-Aug-20 10:23N 47°01' W 002°46'1012.6
2015-Aug-20 09:33N 47°05' W 003°00'1312.7
2015-Aug-20 08:34N 47°09' W 003°17'1212.3
2015-Aug-20 07:33N 47°15' W 003°33'1312.6
2015-Aug-20 06:33N 47°22' W 003°49'7412.4
2015-Aug-20 00:33N 48°01' W 005°23'198 9.4
2015-Aug-19 03:26N 50°12' W 001°36'8211.5
2015-Aug-18 20:21N 50°33' E 000°28'1012.7
2015-Aug-18 19:33N 50°37' E 000°42'1313.2
2015-Aug-18 18:33N 50°45' E 000°59'1212.4
2015-Aug-18 17:33N 50°53' E 001°14'1111.3
2015-Aug-18 16:33N 51°01' E 001°27'10 9.9
2015-Aug-18 15:33N 51°08' E 001°38'10 9.7
2015-Aug-18 14:34N 51°15' E 001°48'1010.5
2015-Aug-18 13:33N 51°24' E 001°56'1512.0
2015-Aug-18 12:19N 51°35' E 002°12'5912.0
2015-Aug-18 07:24N 52°03' E 003°36'810.0
2015-Aug-18 06:33N 52°03' E 003°50'7 6.8
2015-Aug-18 05:33N 52°01' E 004°00'1010.1
2015-Aug-18 04:34N 51°55' E 004°14'3 8.1
2015-Aug-18 04:11N 51°54' E 004°18'0 6.9
2015-Aug-18 04:09N 51°53' E 004°18'1 2.4
2015-Aug-18 03:33N 51°53' E 004°16'  
Track history (hours):
 
Tides and Currents Weather Stations Pressure Air Temp Water Temp Dewpoint Dewpoint Depression Visibility Wind Speed Wind Dir Waves Ship Positions

Stolt Dipper

Last reported at 2015-Aug-28 03:12 UTC. Time now 2015-Aug-28 09:31 UTC.
Position N 51°44' E 002°36'.

Length 96 m; draft 5 m.

Type: Ship. MMSI: 319036000.

Date/timePositionNaut miles runAvg speedWind from/ knotsBaromVisibWave heightAir tempDewpointWater temp
2015-Aug-28 03:12N 51°44' E 002°36'2612.2
2015-Aug-28 01:05N 51°42' E 003°18'714.2
2015-Aug-28 00:33N 51°35' E 003°24'1212.2
2015-Aug-27 23:33N 51°26' E 003°37'1010.2
2015-Aug-27 22:33N 51°21' E 003°51'8 7.8
2015-Aug-27 21:34N 51°24' E 004°02'9 9.4
2015-Aug-27 20:33N 51°21' E 004°16'0 0.5
2015-Aug-27 19:33N 51°21' E 004°17'2 2.4
2015-Aug-27 18:33N 51°19' E 004°19'4 3.5
2015-Aug-27 17:32N 51°16' E 004°22'0 0.0
2015-Aug-27 16:29N 51°16' E 004°22'0 0.0
2015-Aug-27 15:32N 51°16' E 004°22'0 0.0
2015-Aug-27 14:23N 51°16' E 004°22'0 0.0
2015-Aug-27 13:32N 51°16' E 004°22'0 0.0
2015-Aug-27 12:32N 51°16' E 004°22'0 0.0
2015-Aug-27 11:32N 51°16' E 004°22'1 1.4
2015-Aug-27 10:33N 51°17' E 004°20'0 0.0
2015-Aug-27 09:27N 51°17' E 004°20'0 0.0
2015-Aug-27 08:30N 51°17' E 004°20'0 0.0
2015-Aug-27 07:33N 51°17' E 004°20'0 0.0
2015-Aug-27 06:33N 51°17' E 004°20'0 0.0
2015-Aug-27 05:30N 51°17' E 004°20'0 0.0
2015-Aug-27 04:33N 51°17' E 004°20'0 0.0
2015-Aug-27 03:33N 51°17' E 004°20'0 0.0
2015-Aug-27 02:33N 51°17' E 004°20'0 0.0
2015-Aug-27 01:30N 51°17' E 004°20'0 0.0
2015-Aug-27 00:24N 51°17' E 004°20'0 0.0
2015-Aug-26 23:30N 51°17' E 004°20'0 0.0
2015-Aug-26 22:30N 51°17' E 004°20'0 0.0
2015-Aug-26 21:30N 51°17' E 004°20'0 0.1
2015-Aug-26 20:33N 51°17' E 004°20'4 4.5
2015-Aug-26 19:33N 51°21' E 004°17'0 0.0
2015-Aug-26 18:34N 51°21' E 004°17'2 2.1
2015-Aug-26 17:33N 51°21' E 004°14'6 6.4
2015-Aug-26 16:34N 51°22' E 004°04'5 5.0
2015-Aug-26 15:33N 51°22' E 003°56'9 8.6
2015-Aug-26 14:33N 51°24' E 003°42'8 8.0
2015-Aug-26 13:33N 51°25' E 003°30'10 9.6
2015-Aug-26 12:33N 51°24' E 003°14'1312.9
2015-Aug-26 11:33N 51°22' E 002°54'1110.5
2015-Aug-26 10:32N 51°22' E 002°37'3 2.7
2015-Aug-26 09:31N 51°20' E 002°34'0 0.0
2015-Aug-26 08:19N 51°20' E 002°34'0 0.0
2015-Aug-26 07:31N 51°20' E 002°34'1 1.1
2015-Aug-26 06:33N 51°21' E 002°33'9 9.4
2015-Aug-26 05:33N 51°18' E 002°19'1212.1
2015-Aug-26 04:33N 51°12' E 002°02'1211.9
2015-Aug-26 03:33N 51°06' E 001°46'1212.1
2015-Aug-26 02:34N 50°57' E 001°33'32612.1
2015-Aug-24 23:33N 48°08' W 005°37'  
2015-Aug-22 18:04N 46°21' W 002°45'1212.7
2015-Aug-22 17:06N 46°33' W 002°44'712.3
2015-Aug-22 16:29N 46°40' W 002°43'1312.5
2015-Aug-22 15:29N 46°53' W 002°42'1010.8
2015-Aug-22 14:33N 47°02' W 002°35'1212.3
2015-Aug-22 13:33N 47°09' W 002°20'1313.4
2015-Aug-22 12:33N 47°18' W 002°06'2010.0
2015-Aug-22 10:31N 47°12' W 001°38'0 0.0
2015-Aug-22 09:26N 47°12' W 001°38'0 0.0
2015-Aug-22 08:32N 47°12' W 001°38'0 0.0
2015-Aug-22 07:26N 47°12' W 001°38'0 0.0
2015-Aug-22 06:32N 47°12' W 001°38'0 0.0
2015-Aug-22 05:32N 47°12' W 001°38'0 0.0
2015-Aug-22 04:32N 47°12' W 001°38'0 0.0
2015-Aug-22 03:32N 47°12' W 001°38'0 0.0
2015-Aug-22 02:32N 47°12' W 001°38'0 0.0
2015-Aug-22 01:26N 47°12' W 001°38'0 0.0
2015-Aug-22 00:32N 47°12' W 001°38'0 0.0
2015-Aug-21 23:32N 47°12' W 001°38'0 0.0
2015-Aug-21 22:32N 47°12' W 001°38'0 0.0
2015-Aug-21 21:32N 47°12' W 001°38'0 0.0
2015-Aug-21 20:32N 47°12' W 001°38'0 0.0
2015-Aug-21 19:32N 47°12' W 001°38'4 3.8
2015-Aug-21 18:33N 47°12' W 001°43'7 7.4
2015-Aug-21 17:33N 47°16' W 001°53'9 9.4
2015-Aug-21 16:33N 47°18' W 002°06'10 9.7
2015-Aug-21 15:33N 47°12' W 002°17'7 7.1
2015-Aug-21 14:33N 47°07' W 002°25'0 0.2
2015-Aug-21 13:33N 47°07' W 002°25'0 0.0
2015-Aug-21 12:30N 47°07' W 002°25'0 0.0
2015-Aug-21 11:33N 47°07' W 002°25'0 0.0
2015-Aug-21 10:33N 47°07' W 002°25'0 0.0
2015-Aug-21 09:33N 47°07' W 002°25'0 0.0
2015-Aug-21 08:33N 47°07' W 002°25'0 0.1
2015-Aug-21 07:33N 47°07' W 002°25'0 0.0
2015-Aug-21 06:33N 47°07' W 002°25'0 0.0
2015-Aug-21 05:33N 47°07' W 002°25'0 0.0
2015-Aug-21 04:33N 47°07' W 002°25'0 0.0
2015-Aug-21 03:30N 47°07' W 002°25'0 0.0
2015-Aug-21 02:33N 47°07' W 002°25'0 0.1
2015-Aug-21 01:30N 47°07' W 002°25'0 0.0
2015-Aug-21 00:30N 47°07' W 002°25'0 0.0
2015-Aug-20 23:33N 47°07' W 002°25'0 0.0
2015-Aug-20 22:33N 47°07' W 002°25'0 0.0
2015-Aug-20 21:33N 47°07' W 002°25'0 0.0
2015-Aug-20 20:33N 47°07' W 002°25'0 0.0
2015-Aug-20 19:33N 47°07' W 002°25'0 0.0
2015-Aug-20 18:33N 47°07' W 002°25'0 0.0
2015-Aug-20 17:30N 47°07' W 002°25'0 0.0
2015-Aug-20 16:33N 47°07' W 002°25'0 0.0
2015-Aug-20 15:30N 47°07' W 002°25'0 0.0
2015-Aug-20 13:24N 47°07' W 002°25'0 0.1
2015-Aug-20 12:24N 47°07' W 002°25'5 5.9
2015-Aug-20 11:31N 47°03' W 002°30'11 9.8
2015-Aug-20 10:23N 47°01' W 002°46'1012.6
2015-Aug-20 09:33N 47°05' W 003°00'1312.7
2015-Aug-20 08:34N 47°09' W 003°17'1212.3
2015-Aug-20 07:33N 47°15' W 003°33'1312.6
2015-Aug-20 06:33N 47°22' W 003°49'7412.4
2015-Aug-20 00:33N 48°01' W 005°23'198 9.4
2015-Aug-19 03:26N 50°12' W 001°36'8211.5
2015-Aug-18 20:21N 50°33' E 000°28'1012.7
2015-Aug-18 19:33N 50°37' E 000°42'1313.2
2015-Aug-18 18:33N 50°45' E 000°59'1212.4
2015-Aug-18 17:33N 50°53' E 001°14'1111.3
2015-Aug-18 16:33N 51°01' E 001°27'10 9.9
2015-Aug-18 15:33N 51°08' E 001°38'10 9.7
2015-Aug-18 14:34N 51°15' E 001°48'1010.5
2015-Aug-18 13:33N 51°24' E 001°56'1512.0
2015-Aug-18 12:19N 51°35' E 002°12'5912.0
2015-Aug-18 07:24N 52°03' E 003°36'810.0
2015-Aug-18 06:33N 52°03' E 003°50'7 6.8
2015-Aug-18 05:33N 52°01' E 004°00'1010.1
2015-Aug-18 04:34N 51°55' E 004°14'3 8.1
2015-Aug-18 04:11N 51°54' E 004°18'0 6.9
2015-Aug-18 04:09N 51°53' E 004°18'1 2.4
2015-Aug-18 03:33N 51°53' E 004°16'  

Dump ship's entire track history